Time;durP1;ratioP1;P1;durP2;ratioP2;P2;SDS_P1;SDS_P2;PMS_P1;PMS_P2;Temp;Humidity;BMP_temperature;BMP_pressure;BME280_temperature;BME280_humidity;BME280_pressure;Samples;Min_cycle;Max_cycle;Signal;HPM_P1;HPM_P2
2022/06/29 00:01:11;;;;;;;15.18;13.68;;;18.00;99.90;;;;;;5142462;27;20207;-92
2022/06/29 00:07:17;;;;;;;14.57;13.10;;;18.00;99.90;;;;;;5166786;27;20702;-91
2022/06/29 00:09:53;;;;;;;14.73;13.32;;;18.00;99.90;;;;;;5178794;27;20205;-91
2022/06/29 00:12:41;;;;;;;15.25;13.23;;;18.10;99.90;;;;;;5157594;27;20198;-91
2022/06/29 00:15:18;;;;;;;16.30;14.00;;;18.10;99.90;;;;;;5158305;27;20194;-91
2022/06/29 00:17:59;;;;;;;14.88;13.35;;;18.10;99.90;;;;;;5161746;27;20222;-91
2022/06/29 00:20:46;;;;;;;14.90;13.50;;;18.00;99.90;;;;;;5172821;27;20637;-91
2022/06/29 00:23:29;;;;;;;15.20;13.80;;;18.00;99.90;;;;;;5164192;27;20198;-91
2022/06/29 00:26:11;;;;;;;14.77;13.43;;;17.90;99.90;;;;;;5144511;27;20205;-91
2022/06/29 00:28:58;;;;;;;14.15;12.68;;;17.90;99.90;;;;;;5161455;27;20194;-91
2022/06/29 00:31:29;;;;;;;15.13;13.02;;;17.90;99.90;;;;;;5155745;27;20209;-91
2022/06/29 00:34:30;;;;;;;13.82;12.52;;;18.00;99.90;;;;;;5142525;27;20198;-91
2022/06/29 00:37:05;;;;;;;13.45;12.23;;;18.10;99.90;;;;;;5157875;27;20549;-91
2022/06/29 00:39:42;;;;;;;13.52;12.05;;;18.10;99.90;;;;;;5140770;27;20186;-91
2022/06/29 00:42:09;;;;;;;13.02;11.55;;;18.10;99.90;;;;;;5155540;27;20214;-91
2022/06/29 00:45:05;;;;;;;14.02;12.73;;;18.10;99.90;;;;;;5162480;27;20190;-91
2022/06/29 00:47:41;;;;;;;13.75;12.55;;;18.10;99.90;;;;;;5163122;27;20198;-91
2022/06/29 00:53:03;;;;;;;13.30;11.90;;;18.00;99.90;;;;;;5167687;27;20186;-91
2022/06/29 00:55:31;;;;;;;12.73;11.52;;;18.00;99.90;;;;;;5172115;27;20234;-90
2022/06/29 00:57:59;;;;;;;12.25;11.13;;;18.00;99.90;;;;;;5176910;27;20195;-92
2022/06/29 01:00:27;;;;;;;12.93;11.63;;;18.10;99.90;;;;;;5149143;27;20238;-91
2022/06/29 01:03:00;;;;;;;14.23;12.07;;;18.10;99.90;;;;;;5167282;27;20202;-91
2022/06/29 01:05:43;;;;;;;13.02;11.77;;;18.10;99.90;;;;;;5151693;27;20198;-91
2022/06/29 01:08:23;;;;;;;12.27;11.15;;;18.10;99.90;;;;;;5138032;27;20202;-91
2022/06/29 01:11:30;;;;;;;12.77;11.48;;;18.20;99.90;;;;;;5157335;27;20222;-92
2022/06/29 01:14:40;;;;;;;12.02;10.68;;;18.30;99.90;;;;;;5155399;27;20626;-91
2022/06/29 01:17:17;;;;;;;13.07;11.18;;;18.30;99.90;;;;;;5160615;27;20201;-91
2022/06/29 01:20:05;;;;;;;12.52;11.23;;;18.30;99.90;;;;;;5166389;27;20189;-90
2022/06/29 01:22:40;;;;;;;12.48;11.18;;;18.20;99.90;;;;;;5167825;27;20663;-91
2022/06/29 01:25:17;;;;;;;13.23;11.93;;;18.20;99.90;;;;;;5139431;27;20665;-91
2022/06/29 01:27:44;;;;;;;12.98;11.68;;;18.10;99.90;;;;;;5158919;27;20194;-91
2022/06/29 01:30:52;;;;;;;13.13;11.80;;;18.10;99.90;;;;;;5138892;27;20230;-91
2022/06/29 01:33:19;;;;;;;14.27;12.88;;;18.20;99.90;;;;;;5162481;27;20637;-91
2022/06/29 01:35:46;;;;;;;14.20;12.70;;;18.10;99.90;;;;;;5161133;27;20269;-91
2022/06/29 01:38:15;;;;;;;13.52;12.20;;;18.00;99.90;;;;;;5140712;27;20194;-92
2022/06/29 01:41:11;;;;;;;13.18;11.95;;;18.00;99.90;;;;;;5162314;27;20728;-91
2022/06/29 01:43:53;;;;;;;14.02;12.63;;;18.10;99.90;;;;;;5154490;27;20221;-91
2022/06/29 01:46:29;;;;;;;13.38;12.10;;;18.00;99.90;;;;;;5162107;27;20198;-91
2022/06/29 01:48:59;;;;;;;12.95;11.75;;;18.00;99.90;;;;;;5164134;27;20555;-91
2022/06/29 01:51:25;;;;;;;13.45;12.15;;;18.10;99.90;;;;;;5161818;27;20209;-91
2022/06/29 01:54:00;;;;;;;13.30;11.30;;;18.10;99.90;;;;;;5156052;27;20198;-92
2022/06/29 01:56:28;;;;;;;13.52;12.13;;;18.30;99.90;;;;;;5147874;27;20242;-91
2022/06/29 01:59:34;;;;;;;13.13;11.75;;;18.30;99.90;;;;;;5162799;27;20532;-91
2022/06/29 02:02:01;;;;;;;12.48;11.30;;;18.30;99.90;;;;;;5150822;27;20201;-91
2022/06/29 02:04:52;;;;;;;12.57;10.90;;;18.20;99.90;;;;;;5167606;27;20190;-91
2022/06/29 02:07:35;;;;;;;12.75;11.45;;;18.20;99.90;;;;;;5168607;27;20278;-91
2022/06/29 02:10:04;;;;;;;13.27;11.82;;;18.40;99.90;;;;;;5156134;27;20211;-91
2022/06/29 02:12:41;;;;;;;12.82;11.50;;;18.30;99.90;;;;;;5159212;27;20197;-91
2022/06/29 02:15:19;;;;;;;13.10;11.80;;;18.20;99.90;;;;;;5137880;27;20202;-91
2022/06/29 02:18:04;;;;;;;13.93;12.05;;;18.10;99.90;;;;;;5161266;27;20738;-91
2022/06/29 02:20:31;;;;;;;13.82;12.45;;;18.00;99.90;;;;;;5163362;27;20195;-90
2022/06/29 02:22:58;;;;;;;13.52;12.15;;;18.10;99.90;;;;;;5158515;27;20213;-92
2022/06/29 02:25:44;;;;;;;14.52;11.60;;;18.00;99.90;;;;;;5166319;27;20227;-91
2022/06/29 02:28:11;;;;;;;11.68;10.63;;;17.90;99.90;;;;;;5167220;27;20216;-91
2022/06/29 02:36:29;;;;;;;12.60;11.40;;;18.10;99.90;;;;;;5094372;28;20222;-92
2022/06/29 02:38:59;;;;;;;13.13;11.52;;;18.00;99.90;;;;;;5085682;28;20205;-92
2022/06/29 02:42:17;;;;;;;14.32;11.52;;;18.00;99.90;;;;;;5100222;28;20208;-91
2022/06/29 02:45:00;;;;;;;12.45;10.60;;;17.80;99.90;;;;;;5094431;28;20203;-91
2022/06/29 02:47:41;;;;;;;12.18;10.30;;;17.80;99.90;;;;;;5094183;28;20655;-91
2022/06/29 02:50:08;;;;;;;11.32;9.75;;;17.80;99.90;;;;;;5076923;28;20240;-91
2022/06/29 02:53:17;;;;;;;12.75;9.32;;;17.80;99.90;;;;;;5099346;28;20205;-91
2022/06/29 02:55:47;;;;;;;13.80;9.18;;;17.90;99.90;;;;;;5093982;28;20204;-91
2022/06/29 02:58:34;;;;;;;14.75;9.90;;;18.00;99.90;;;;;;5076814;28;20220;-91
2022/06/29 03:01:24;;;;;;;12.75;10.27;;;18.00;99.90;;;;;;5089113;28;20282;-91
2022/06/29 03:03:53;;;;;;;11.60;9.55;;;17.80;99.90;;;;;;5085019;28;20388;-91
2022/06/29 03:06:41;;;;;;;10.15;8.80;;;17.80;99.90;;;;;;5081802;28;20213;-90
2022/06/29 03:09:08;;;;;;;11.45;9.25;;;17.90;99.90;;;;;;5076065;28;20193;-91
2022/06/29 03:11:53;;;;;;;10.60;9.10;;;17.90;99.90;;;;;;5137366;27;20228;-91
2022/06/29 03:21:31;;;;;;;13.07;8.88;;;18.10;99.90;;;;;;5121829;27;20539;-91
2022/06/29 03:23:58;;;;;;;10.07;9.07;;;18.10;99.90;;;;;;5123613;27;20199;-91
2022/06/29 03:26:25;;;;;;;10.43;9.30;;;17.90;99.90;;;;;;5136567;27;20183;-91
2022/06/29 03:28:53;;;;;;;10.70;9.60;;;18.00;99.90;;;;;;5119692;27;20188;-91
2022/06/29 03:32:17;;;;;;;10.88;9.32;;;18.00;99.90;;;;;;5112380;28;20252;-92
2022/06/29 03:34:59;;;;;;;9.68;8.73;;;18.10;99.90;;;;;;5132154;27;20298;-91
2022/06/29 03:37:30;;;;;;;11.25;8.85;;;18.10;99.90;;;;;;5100504;28;20191;-92
2022/06/29 03:40:34;;;;;;;11.38;8.80;;;18.30;99.90;;;;;;5118011;27;20821;-92
2022/06/29 03:43:05;;;;;;;13.88;9.38;;;18.30;99.90;;;;;;5106416;28;20207;-92
2022/06/29 03:45:35;;;;;;;9.88;8.40;;;18.30;99.90;;;;;;5100373;28;20530;-92
2022/06/29 03:51:46;;;;;;;9.57;8.57;;;18.30;99.90;;;;;;5103970;28;20312;-90
2022/06/29 03:54:36;;;;;;;9.60;8.70;;;18.40;99.90;;;;;;5100592;28;20640;-91
2022/06/29 04:00:36;;;;;;;10.95;9.25;;;18.40;99.90;;;;;;5107132;28;20298;-92
2022/06/29 04:03:17;;;;;;;10.85;9.75;;;18.30;99.90;;;;;;5097306;28;20197;-91
2022/06/29 04:06:25;;;;;;;9.57;8.50;;;18.30;99.90;;;;;;5108464;28;20192;-91
2022/06/29 04:08:52;;;;;;;10.68;8.85;;;18.40;99.90;;;;;;5097377;28;20196;-92
2022/06/29 04:11:53;;;;;;;10.98;9.82;;;18.30;99.90;;;;;;5071090;28;20205;-92
2022/06/29 04:14:22;;;;;;;14.20;9.90;;;18.40;99.90;;;;;;5095396;28;20639;-92
2022/06/29 04:16:54;;;;;;;9.85;8.95;;;18.30;99.90;;;;;;5102652;28;20197;-91
2022/06/29 04:19:29;;;;;;;10.10;8.68;;;18.20;99.90;;;;;;5100807;28;20232;-91
2022/06/29 04:21:57;;;;;;;10.80;9.77;;;18.20;99.90;;;;;;5101447;28;20199;-91
2022/06/29 04:24:59;;;;;;;9.88;8.88;;;18.20;99.90;;;;;;5098009;28;20190;-91
2022/06/29 04:27:31;;;;;;;11.55;8.88;;;18.20;99.90;;;;;;5104375;28;20631;-91
2022/06/29 04:30:06;;;;;;;9.15;8.25;;;18.20;99.90;;;;;;5102405;28;20189;-91
2022/06/29 04:32:41;;;;;;;8.93;8.02;;;18.20;99.90;;;;;;5087605;28;20554;-91
2022/06/29 04:35:28;;;;;;;8.85;7.95;;;18.20;99.90;;;;;;5089829;28;20212;-90
2022/06/29 04:38:40;;;;;;;8.85;7.95;;;18.20;99.90;;;;;;5084244;28;20185;-90
2022/06/29 04:41:23;;;;;;;11.25;7.75;;;18.20;99.90;;;;;;5088777;28;20555;-90
2022/06/29 04:43:52;;;;;;;10.68;8.45;;;18.20;99.90;;;;;;5080195;28;20201;-90
2022/06/29 04:49:53;;;;;;;9.13;7.80;;;18.10;99.90;;;;;;5095995;28;20183;-90
2022/06/29 04:52:46;;;;;;;11.27;7.68;;;18.20;99.90;;;;;;5097069;28;20188;-90
2022/06/29 04:55:25;;;;;;;12.20;8.40;;;18.10;99.90;;;;;;5095668;28;20271;-90
2022/06/29 04:58:29;;;;;;;9.15;8.27;;;18.20;99.90;;;;;;5076092;28;20222;-90
2022/06/29 05:03:54;;;;;;;9.93;7.93;;;18.20;99.90;;;;;;5100392;28;20192;-90
2022/06/29 05:06:46;;;;;;;10.15;8.27;;;18.20;99.90;;;;;;5100501;28;20200;-91
2022/06/29 05:09:23;;;;;;;8.85;8.05;;;18.30;99.90;;;;;;5099188;28;20193;-90
2022/06/29 05:12:07;;;;;;;11.13;8.20;;;18.40;99.90;;;;;;5087365;28;20203;-90
2022/06/29 05:14:35;;;;;;;10.65;8.48;;;18.50;99.90;;;;;;5094075;28;20226;-90
2022/06/29 05:17:52;;;;;;;9.48;8.45;;;18.40;99.90;;;;;;5078135;28;20205;-90
2022/06/29 05:20:32;;;;;;;10.77;7.45;;;18.40;99.90;;;;;;5088431;28;20242;-90
2022/06/29 05:22:59;;;;;;;8.82;7.22;;;18.50;99.90;;;;;;5093055;28;20489;-90
2022/06/29 05:25:35;;;;;;;8.40;7.55;;;18.60;99.90;;;;;;5089532;28;20199;-90
2022/06/29 05:28:35;;;;;;;9.45;7.22;;;18.70;99.90;;;;;;5085070;28;20189;-89
2022/06/29 05:31:23;;;;;;;8.80;7.60;;;18.70;99.90;;;;;;5081056;28;20833;-89
2022/06/29 05:33:53;;;;;;;9.57;7.05;;;18.80;99.90;;;;;;5087695;28;20220;-90
2022/06/29 05:36:24;;;;;;;8.50;7.53;;;18.70;99.90;;;;;;5086502;28;20199;-89
2022/06/29 05:38:59;;;;;;;8.80;7.43;;;18.80;99.90;;;;;;5071595;28;20377;-90
2022/06/29 05:41:26;;;;;;;8.60;7.57;;;18.90;99.90;;;;;;5090358;28;20220;-90
2022/06/29 05:43:53;;;;;;;8.23;7.43;;;18.80;99.90;;;;;;5079227;28;20187;-89
2022/06/29 05:46:23;;;;;;;8.57;7.22;;;19.00;99.90;;;;;;5074108;28;20200;-89
2022/06/29 05:48:59;;;;;;;10.65;7.78;;;19.10;99.90;;;;;;5078889;28;20188;-90
2022/06/29 05:51:54;;;;;;;12.65;9.50;;;19.20;99.90;;;;;;5085174;28;20219;-89
2022/06/29 05:54:29;;;;;;;10.35;9.38;;;19.40;98.90;;;;;;5085024;28;20585;-91
2022/06/29 05:56:56;;;;;;;14.85;9.80;;;19.50;98.00;;;;;;5099189;28;20198;-90
2022/06/29 05:59:23;;;;;;;11.10;9.90;;;19.60;98.00;;;;;;5095376;28;20196;-91
2022/06/29 06:01:50;;;;;;;11.25;10.15;;;19.70;97.50;;;;;;5093687;28;20200;-91
2022/06/29 06:04:16;;;;;;;11.02;9.88;;;19.80;96.90;;;;;;5087545;28;20197;-90
2022/06/29 06:07:01;;;;;;;9.88;8.90;;;20.00;96.30;;;;;;5086039;28;20238;-89
2022/06/29 06:09:52;;;;;;;10.40;9.40;;;20.00;96.40;;;;;;5082836;28;20226;-89
2022/06/29 06:12:30;;;;;;;10.93;9.77;;;20.20;96.30;;;;;;5079129;28;20654;-90
2022/06/29 06:14:58;;;;;;;12.25;11.00;;;20.40;95.30;;;;;;5082362;28;21659;-89
2022/06/29 06:20:53;;;;;;;13.38;10.40;;;20.70;94.60;;;;;;5080927;28;20308;-88
2022/06/29 06:23:21;;;;;;;12.70;11.38;;;20.80;94.60;;;;;;5085376;28;20204;-88
2022/06/29 06:25:53;;;;;;;16.42;11.68;;;20.80;93.70;;;;;;5085656;28;20193;-87
2022/06/29 06:28:29;;;;;;;12.13;10.88;;;20.70;93.80;;;;;;5082030;28;20192;-89
2022/06/29 06:30:56;;;;;;;11.43;10.13;;;20.70;94.00;;;;;;5089028;28;20216;-89
2022/06/29 06:33:23;;;;;;;13.48;11.48;;;20.70;94.00;;;;;;5083034;28;20199;-89
2022/06/29 06:36:05;;;;;;;14.63;10.73;;;20.50;94.10;;;;;;5080860;28;20185;-89
2022/06/29 06:38:34;;;;;;;11.10;10.00;;;20.60;94.30;;;;;;5087193;28;20192;-89
2022/06/29 06:41:24;;;;;;;10.45;9.40;;;20.70;93.70;;;;;;5088842;28;20659;-87
2022/06/29 06:44:05;;;;;;;10.93;9.73;;;20.70;93.40;;;;;;5091814;28;20188;-87
2022/06/29 06:46:34;;;;;;;11.80;10.02;;;20.70;93.40;;;;;;5073946;28;20200;-87
2022/06/29 06:49:00;;;;;;;11.05;9.70;;;20.40;93.40;;;;;;5088179;28;20331;-83
2022/06/29 06:51:41;;;;;;;11.55;10.45;;;20.30;94.50;;;;;;5089466;28;20199;-87
2022/06/29 06:54:12;;;;;;;13.95;10.85;;;20.20;94.60;;;;;;5080113;28;20200;-87
2022/06/29 06:56:39;;;;;;;13.45;10.35;;;20.20;94.50;;;;;;5086859;28;20193;-87
2022/06/29 06:59:06;;;;;;;12.05;10.85;;;20.00;95.00;;;;;;5089959;28;20586;-88
2022/06/29 07:01:35;;;;;;;12.35;10.32;;;20.10;94.80;;;;;;5081327;28;20613;-89
2022/06/29 07:04:02;;;;;;;11.88;10.68;;;20.30;94.60;;;;;;5082216;28;20189;-89
2022/06/29 07:06:52;;;;;;;10.38;9.48;;;20.40;94.50;;;;;;5084144;28;20197;-90
2022/06/29 07:09:21;;;;;;;10.57;9.43;;;20.50;94.40;;;;;;5079111;28;20196;-90
2022/06/29 07:11:48;;;;;;;11.07;9.02;;;20.50;94.40;;;;;;5080088;28;20200;-88
2022/06/29 07:14:17;;;;;;;11.65;9.90;;;20.50;95.20;;;;;;5079780;28;20235;-87
2022/06/29 07:16:44;;;;;;;11.70;10.23;;;20.50;95.00;;;;;;5082987;28;20688;-90
2022/06/29 07:19:23;;;;;;;10.50;9.50;;;20.40;94.90;;;;;;5094036;28;20192;-88
2022/06/29 07:21:50;;;;;;;10.55;9.45;;;20.30;95.80;;;;;;5090180;28;20223;-88
2022/06/29 07:24:17;;;;;;;12.90;9.93;;;20.50;95.20;;;;;;5076639;28;20202;-89
2022/06/29 07:26:48;;;;;;;10.13;9.13;;;20.70;94.80;;;;;;5085441;28;20196;-88
2022/06/29 07:29:34;;;;;;;10.82;9.70;;;20.90;94.30;;;;;;5092769;28;20199;-88
2022/06/29 07:32:34;;;;;;;10.82;9.77;;;21.20;92.90;;;;;;5086033;28;20204;-90
2022/06/29 07:35:05;;;;;;;9.63;8.48;;;21.40;93.00;;;;;;5086503;28;20195;-90
2022/06/29 07:37:58;;;;;;;9.20;8.40;;;21.60;92.30;;;;;;5087444;28;20184;-90
2022/06/29 07:40:25;;;;;;;9.18;8.30;;;21.70;91.30;;;;;;5090205;28;20204;-89
2022/06/29 07:42:54;;;;;;;9.20;8.30;;;21.70;91.30;;;;;;5089730;28;20191;-87
2022/06/29 07:45:23;;;;;;;9.52;8.57;;;21.80;91.20;;;;;;5081147;28;20197;-88
2022/06/29 07:47:53;;;;;;;9.32;8.38;;;21.70;90.40;;;;;;5085436;28;20203;-89
2022/06/29 07:50:23;;;;;;;9.40;8.43;;;21.90;90.10;;;;;;5101150;28;20193;-89
2022/06/29 07:52:59;;;;;;;8.57;7.78;;;22.30;87.50;;;;;;5092722;28;20205;-90
2022/06/29 07:55:29;;;;;;;15.60;9.38;;;22.30;86.30;;;;;;5092149;28;20196;-86
2022/06/29 07:58:00;;;;;;;10.50;8.02;;;22.50;85.50;;;;;;5094589;28;20201;-83
2022/06/29 08:00:29;;;;;;;13.60;9.30;;;22.80;84.60;;;;;;5086916;28;20224;-85
2022/06/29 08:03:29;;;;;;;13.13;9.50;;;22.60;82.70;;;;;;5086548;28;20212;-86
2022/06/29 08:05:55;;;;;;;9.55;8.55;;;22.40;82.80;;;;;;5082748;28;20264;-85
2022/06/29 08:08:29;;;;;;;9.02;8.00;;;22.70;82.80;;;;;;5094076;28;20192;-85
2022/06/29 08:10:56;;;;;;;9.63;7.88;;;23.00;82.00;;;;;;5101388;28;20196;-85
2022/06/29 08:13:30;;;;;;;10.68;7.03;;;23.00;80.60;;;;;;5100697;28;20199;-85
2022/06/29 08:15:59;;;;;;;10.15;8.18;;;23.00;79.60;;;;;;5099644;28;20207;-84
2022/06/29 08:18:27;;;;;;;8.27;7.50;;;22.80;80.00;;;;;;5093668;28;20204;-85
2022/06/29 08:20:59;;;;;;;8.73;7.38;;;22.40;82.50;;;;;;5098914;28;20683;-84
2022/06/29 08:23:41;;;;;;;9.05;7.00;;;22.20;82.40;;;;;;5089479;28;20536;-84
2022/06/29 08:26:29;;;;;;;9.00;7.72;;;21.90;89.80;;;;;;5079100;28;20196;-86
2022/06/29 08:28:57;;;;;;;7.88;7.07;;;21.90;88.10;;;;;;5094151;28;20189;-85
2022/06/29 08:31:29;;;;;;;7.65;6.55;;;21.90;87.50;;;;;;5098347;28;20192;-85
2022/06/29 08:33:56;;;;;;;7.03;6.43;;;21.90;88.60;;;;;;5096457;28;20200;-88
2022/06/29 08:36:29;;;;;;;7.82;6.95;;;21.80;89.00;;;;;;5097503;28;20196;-88
2022/06/29 08:38:56;;;;;;;8.07;7.28;;;21.70;90.20;;;;;;5095650;28;20199;-87
2022/06/29 08:41:24;;;;;;;8.18;7.35;;;21.50;90.60;;;;;;5102743;28;20235;-90
2022/06/29 08:43:51;;;;;;;8.38;7.15;;;21.40;90.40;;;;;;5091854;28;20188;-88
2022/06/29 08:46:20;;;;;;;8.18;7.47;;;21.40;90.90;;;;;;5091201;28;20203;-88
2022/06/29 08:48:49;;;;;;;7.65;6.95;;;21.20;91.30;;;;;;5089715;28;20189;-87
2022/06/29 08:51:34;;;;;;;7.75;7.05;;;21.40;91.30;;;;;;5092970;28;20200;-88
2022/06/29 08:54:07;;;;;;;8.60;7.72;;;22.00;90.60;;;;;;5094033;28;20249;-88
2022/06/29 08:56:36;;;;;;;7.72;7.03;;;22.00;87.10;;;;;;5099955;28;20189;-87
2022/06/29 08:59:04;;;;;;;7.97;6.97;;;22.00;86.90;;;;;;5095394;28;20199;-87
2022/06/29 09:02:00;;;;;;;8.52;7.00;;;21.90;87.80;;;;;;5088647;28;20217;-87
2022/06/29 09:04:29;;;;;;;6.70;6.10;;;21.80;89.00;;;;;;5094979;28;20220;-90
2022/06/29 09:06:59;;;;;;;7.57;6.85;;;21.90;90.30;;;;;;5090622;28;20212;-89
2022/06/29 09:10:05;;;;;;;8.48;7.53;;;22.10;89.40;;;;;;5083924;28;20201;-90
2022/06/29 09:12:33;;;;;;;8.73;7.82;;;22.00;86.00;;;;;;5094295;28;20220;-87
2022/06/29 09:15:17;;;;;;;13.77;7.20;;;21.70;88.60;;;;;;5095196;28;20196;-89
2022/06/29 09:17:46;;;;;;;8.20;7.22;;;21.80;90.30;;;;;;5093764;28;20198;-90
2022/06/29 09:20:19;;;;;;;7.82;7.13;;;21.80;91.00;;;;;;5084998;28;20259;-88
2022/06/29 09:22:55;;;;;;;6.90;6.15;;;21.70;90.10;;;;;;5087412;28;20315;-89
2022/06/29 09:25:59;;;;;;;7.43;6.82;;;21.80;90.20;;;;;;5070379;28;20532;-90
2022/06/29 09:28:36;;;;;;;8.43;5.97;;;22.10;89.30;;;;;;5086194;28;20181;-90
2022/06/29 09:31:07;;;;;;;7.25;6.18;;;22.50;86.00;;;;;;5098968;28;20222;-90
2022/06/29 09:33:35;;;;;;;7.15;6.25;;;22.50;83.90;;;;;;5086639;28;20205;-88
2022/06/29 09:36:08;;;;;;;6.47;5.40;;;22.20;84.10;;;;;;5094810;28;20197;-89
2022/06/29 09:38:59;;;;;;;8.80;6.20;;;22.10;86.50;;;;;;5086545;28;20211;-88
2022/06/29 09:41:28;;;;;;;9.35;6.78;;;21.90;89.50;;;;;;5083355;28;20275;-90
2022/06/29 09:43:59;;;;;;;6.65;5.72;;;21.70;89.50;;;;;;5081692;28;20590;-88
2022/06/29 09:46:41;;;;;;;6.70;6.10;;;21.70;91.00;;;;;;5086288;28;20196;-88
2022/06/29 09:49:10;;;;;;;7.20;5.95;;;21.60;91.20;;;;;;5087610;28;20196;-89
2022/06/29 09:52:11;;;;;;;5.53;4.95;;;21.50;91.00;;;;;;5087315;28;20197;-88
2022/06/29 09:54:48;;;;;;;6.07;5.47;;;21.70;91.20;;;;;;5076347;28;20193;-88
2022/06/29 09:57:20;;;;;;;5.40;4.90;;;22.20;89.90;;;;;;5081436;28;20195;-87
2022/06/29 10:03:00;;;;;;;5.70;5.15;;;24.60;65.30;;;;;;5098248;28;20228;-85
2022/06/29 10:08:17;;;;;;;7.15;6.25;;;24.50;71.40;;;;;;5098302;28;20193;-86
2022/06/29 10:13:39;;;;;;;6.68;6.07;;;24.60;63.80;;;;;;5103612;28;20198;-86
2022/06/29 10:14:04;;;;;;;7.72;6.90;;;24.80;63.40;;;;;;5091121;28;20329;-86
2022/06/29 10:16:42;;;;;;;8.07;6.28;;;25.50;60.50;;;;;;5097345;28;20223;-86
2022/06/29 10:19:39;;;;;;;8.20;6.30;;;25.50;52.10;;;;;;5093167;28;20192;-86
2022/06/29 10:22:07;;;;;;;8.55;7.10;;;25.60;50.20;;;;;;5100422;28;20599;-85
2022/06/29 10:24:37;;;;;;;7.90;6.07;;;24.90;51.40;;;;;;5089830;28;20212;-87
2022/06/29 10:27:08;;;;;;;5.00;4.60;;;25.30;60.80;;;;;;5087066;28;20608;-86
2022/06/29 10:29:41;;;;;;;5.50;4.88;;;25.90;50.90;;;;;;5094861;28;20330;-87
2022/06/29 10:32:17;;;;;;;5.85;4.55;;;25.70;47.00;;;;;;5091723;28;20208;-86
2022/06/29 10:37:32;;;;;;;8.45;5.32;;;25.20;49.00;;;;;;5089344;28;20284;-87
2022/06/29 10:40:08;;;;;;;8.05;5.22;;;24.70;54.60;;;;;;5095791;28;20571;-88
2022/06/29 10:45:46;;;;;;;6.13;4.43;;;24.70;55.70;;;;;;5086571;28;20202;-86
2022/06/29 10:48:25;;;;;;;5.97;4.70;;;24.50;53.50;;;;;;5081921;28;20192;-86
2022/06/29 10:50:59;;;;;;;5.20;4.70;;;24.80;53.50;;;;;;5087381;28;20188;-86
2022/06/29 10:53:31;;;;;;;8.10;4.82;;;25.00;50.50;;;;;;5088498;28;20278;-89
2022/06/29 10:55:58;;;;;;;7.57;4.88;;;25.10;49.00;;;;;;5085797;28;20186;-87
2022/06/29 10:58:25;;;;;;;5.80;4.32;;;25.20;50.20;;;;;;5095163;28;20197;-87
2022/06/29 11:00:59;;;;;;;6.05;4.72;;;25.30;47.50;;;;;;5087892;28;20275;-87
2022/06/29 11:03:47;;;;;;;5.25;4.18;;;25.70;48.80;;;;;;5089811;28;20869;-86
2022/06/29 11:12:28;;;;;;;5.03;4.30;;;27.30;37.90;;;;;;5087805;28;20229;-87
2022/06/29 11:17:59;;;;;;;4.60;4.10;;;27.00;36.70;;;;;;5084721;28;20200;-88
2022/06/29 11:20:30;;;;;;;5.25;4.10;;;27.20;36.30;;;;;;5090230;28;20240;-89
2022/06/29 11:22:59;;;;;;;7.60;4.53;;;27.20;35.40;;;;;;5089390;28;20212;-88
2022/06/29 11:25:45;;;;;;;3.67;3.38;;;27.10;35.00;;;;;;5074906;28;20201;-88
2022/06/29 11:28:25;;;;;;;4.85;3.78;;;27.60;37.80;;;;;;5084796;28;20195;-87
2022/06/29 11:31:01;;;;;;;5.63;4.40;;;27.80;35.40;;;;;;5082794;28;20191;-87
2022/06/29 11:33:29;;;;;;;4.55;3.63;;;27.40;36.30;;;;;;5088941;28;20659;-87
2022/06/29 11:36:04;;;;;;;6.07;3.58;;;27.10;35.10;;;;;;5075506;28;20207;-85
2022/06/29 11:38:32;;;;;;;5.72;3.92;;;27.30;37.70;;;;;;5095310;28;20192;-87
2022/06/29 11:41:12;;;;;;;5.05;3.80;;;27.40;32.30;;;;;;5090793;28;20220;-89
2022/06/29 11:43:41;;;;;;;5.75;3.58;;;27.00;32.40;;;;;;5084166;28;20652;-87
2022/06/29 11:46:19;;;;;;;5.03;3.70;;;27.10;33.90;;;;;;5089545;28;20187;-87
2022/06/29 11:51:31;;;;;;;6.00;5.30;;;26.40;37.10;;;;;;5085860;28;21244;-87
2022/06/29 11:54:01;;;;;;;5.43;4.47;;;26.00;36.90;;;;;;5089712;28;20275;-88
2022/06/29 11:56:34;;;;;;;6.75;5.10;;;25.80;40.10;;;;;;5091643;28;20272;-88
2022/06/29 11:59:35;;;;;;;6.28;4.50;;;25.30;43.40;;;;;;5076573;28;20662;-87
2022/06/29 12:02:02;;;;;;;4.57;4.10;;;25.00;48.30;;;;;;5090726;28;20208;-84
2022/06/29 12:04:31;;;;;;;10.05;4.60;;;24.90;46.60;;;;;;5094809;28;20519;-83
2022/06/29 12:07:21;;;;;;;4.78;4.25;;;24.60;49.70;;;;;;5102054;28;20627;-86
2022/06/29 12:10:29;;;;;;;5.93;4.20;;;24.50;50.40;;;;;;5088410;28;20189;-85
2022/06/29 12:12:57;;;;;;;4.50;4.10;;;24.50;49.30;;;;;;5094162;28;20194;-85
2022/06/29 12:15:54;;;;;;;8.50;4.65;;;24.50;52.90;;;;;;5096018;28;20545;-88
2022/06/29 12:18:21;;;;;;;6.03;3.90;;;24.50;53.90;;;;;;5090680;28;20631;-88
2022/06/29 12:20:53;;;;;;;6.80;3.78;;;24.60;53.90;;;;;;5083528;28;20190;-86
2022/06/29 12:23:35;;;;;;;6.72;4.00;;;24.30;51.30;;;;;;5079676;28;20899;-88
2022/06/29 12:26:23;;;;;;;4.55;3.67;;;24.30;51.50;;;;;;5087220;28;20203;-87
2022/06/29 12:29:01;;;;;;;4.72;4.07;;;24.20;53.30;;;;;;5084222;28;20193;-88
2022/06/29 12:31:53;;;;;;;5.25;4.22;;;24.30;53.80;;;;;;5072120;28;20209;-87
2022/06/29 12:34:23;;;;;;;5.45;4.30;;;24.40;54.60;;;;;;5102205;28;20188;-86
2022/06/29 12:37:06;;;;;;;4.72;4.05;;;24.50;54.00;;;;;;5091377;28;20197;-85
2022/06/29 12:39:35;;;;;;;8.68;4.30;;;24.60;54.20;;;;;;5094378;28;20277;-85
2022/06/29 12:42:11;;;;;;;4.32;3.92;;;24.70;48.40;;;;;;5090969;28;20231;-84
2022/06/29 12:44:39;;;;;;;6.32;3.95;;;25.00;49.50;;;;;;5090784;28;20208;-85
2022/06/29 12:47:06;;;;;;;5.22;4.40;;;25.20;52.80;;;;;;5098808;28;20196;-86
2022/06/29 12:49:41;;;;;;;4.65;4.22;;;25.60;48.40;;;;;;5098963;28;20199;-86
2022/06/29 12:52:24;;;;;;;6.03;4.45;;;25.70;42.40;;;;;;5109541;28;20192;-87
2022/06/29 12:55:06;;;;;;;4.65;4.18;;;25.70;38.10;;;;;;5092889;28;20548;-88
2022/06/29 12:57:35;;;;;;;6.25;5.10;;;25.80;39.90;;;;;;5072922;28;20208;-88
2022/06/29 13:00:15;;;;;;;5.03;4.53;;;25.70;42.50;;;;;;5083916;28;20192;-89
2022/06/29 13:02:47;;;;;;;4.95;4.40;;;25.30;43.60;;;;;;5096895;28;20227;-89
2022/06/29 13:05:14;;;;;;;6.55;4.72;;;25.50;47.10;;;;;;5090174;28;20187;-89
2022/06/29 13:07:47;;;;;;;5.65;4.60;;;25.30;47.50;;;;;;5088749;28;20189;-90
2022/06/29 13:10:28;;;;;;;5.45;4.32;;;25.40;50.20;;;;;;5081696;28;20201;-88
2022/06/29 13:13:03;;;;;;;7.68;4.85;;;25.50;49.10;;;;;;5086853;28;20636;-88
2022/06/29 13:15:37;;;;;;;5.20;4.70;;;25.40;48.00;;;;;;5084224;28;20314;-90
2022/06/29 13:18:40;;;;;;;5.13;4.00;;;25.30;45.30;;;;;;5087830;28;20200;-90
2022/06/29 13:21:07;;;;;;;6.15;4.43;;;25.20;46.80;;;;;;5092863;28;20279;-90
2022/06/29 13:23:34;;;;;;;4.88;4.47;;;25.00;44.20;;;;;;5084564;28;20207;-90
2022/06/29 13:26:01;;;;;;;5.57;4.30;;;24.80;46.80;;;;;;5086607;28;20203;-91
2022/06/29 13:28:38;;;;;;;4.57;4.13;;;24.60;47.60;;;;;;5083540;28;20181;-90
2022/06/29 13:31:15;;;;;;;4.70;3.95;;;24.50;49.20;;;;;;5095336;28;20200;-89
2022/06/29 13:33:43;;;;;;;4.57;4.18;;;24.50;50.70;;;;;;5081785;28;20195;-87
2022/06/29 13:36:11;;;;;;;7.30;3.60;;;24.80;49.30;;;;;;5085195;28;20196;-88
2022/06/29 13:38:43;;;;;;;5.03;3.72;;;24.90;47.60;;;;;;5087138;28;20610;-86
2022/06/29 13:41:20;;;;;;;5.22;3.88;;;24.80;49.90;;;;;;5087755;28;20225;-89
2022/06/29 13:43:47;;;;;;;6.40;4.20;;;25.20;48.40;;;;;;5082678;28;20228;-88
2022/06/29 13:46:37;;;;;;;5.53;4.10;;;25.40;44.20;;;;;;5088576;28;20199;-87
2022/06/29 13:49:17;;;;;;;4.38;3.78;;;25.70;43.00;;;;;;5090122;28;20200;-88
2022/06/29 13:51:53;;;;;;;5.40;4.00;;;26.20;40.40;;;;;;5091871;28;20195;-88
2022/06/29 13:54:47;;;;;;;4.50;3.78;;;26.50;38.30;;;;;;5086719;28;20192;-89
2022/06/29 13:57:23;;;;;;;5.57;4.13;;;26.80;36.00;;;;;;5096062;28;20190;-88
2022/06/29 13:59:50;;;;;;;6.13;4.10;;;26.90;35.10;;;;;;5077753;28;20180;-88
2022/06/29 14:02:19;;;;;;;4.63;3.70;;;27.10;35.70;;;;;;5081700;28;20212;-91
2022/06/29 14:04:48;;;;;;;4.60;3.45;;;27.10;33.60;;;;;;5091125;28;20197;-88
2022/06/29 14:07:23;;;;;;;4.68;3.55;;;26.80;32.20;;;;;;5086137;28;20200;-88
2022/06/29 14:10:17;;;;;;;6.47;3.65;;;26.90;33.00;;;;;;5097507;28;20196;-84
2022/06/29 14:13:00;;;;;;;5.13;3.50;;;26.80;33.30;;;;;;5094406;28;20203;-89
2022/06/29 14:15:35;;;;;;;5.95;3.40;;;27.10;33.40;;;;;;5075748;28;20197;-88
2022/06/29 14:18:04;;;;;;;6.00;3.60;;;27.20;33.50;;;;;;5068783;28;20210;-88
2022/06/29 14:20:59;;;;;;;4.15;3.63;;;27.50;32.70;;;;;;5074291;28;20253;-89
2022/06/29 14:23:26;;;;;;;4.38;3.58;;;27.40;29.40;;;;;;5088962;28;20251;-90
2022/06/29 14:25:54;;;;;;;5.03;3.40;;;27.10;30.10;;;;;;5088860;28;20214;-90
2022/06/29 14:28:21;;;;;;;4.28;3.80;;;27.10;30.00;;;;;;5085089;28;20211;-89
2022/06/29 14:30:48;;;;;;;4.45;3.60;;;27.20;31.60;;;;;;5082582;28;20208;-87